Information Last Ob Photographs Meteogram Network Table Neighbors Monthly Summaries Observation History Wind Roses Custom Wind Roses Data Calendar Satellite Cloud Product Download

Satellite Cloud Product

NESDIS produces a Satellite Cloud Product (SCP) that supplements the ASOS ceilometer readings. This page merges the SCP data with the METAR observations for a given UTC date. Cloud level values are presented in feet above ground level. ECA represents estimated cloud amount expressed in percentage. An IEM Web Service provided the following JSON dataset for this page. Data is available for some sites back to 1993.

Year: Month: Day: Time Order:

 

SCP Valid UTCSatellite East SounderSatellite West SounderASOS METAR Report
Mid CloudsHigh CloudsLevels [ft]ECA [%]Mid CloudsHigh CloudsLevels [ft]ECA [%]Levels ftMETAR
0050ZSCTSCT13000 - 350002SCT18000 - 290008CLR KDDH 260054Z AUTO 17004KT 10SM CLR 02/M12 A2994 RMK AO2 SLP151 T00171117
0150ZSCT27000 - 3300013SCT20000 - 300008CLR KDDH 260154Z AUTO 00000KT 10SM CLR M01/M11 A2997 RMK AO2 SLP159 T10061111
0250ZSCT26000 - 3500020SCT20000 - 3400010CLR KDDH 260254Z AUTO VRB04KT 10SM CLR 01/M12 A2995 RMK AO2 SLP152 T00111117 50001
0350ZOVC25000 - 3500038SCT27000 - 3400011CLR KDDH 260354Z AUTO VRB03KT 10SM CLR 01/M11 A2993 RMK AO2 SLP145 T00061111
0450ZOVC22000 - 3200062SCT20000 - 3000011BKN@11000
KDDH 260454Z AUTO VRB04KT 10SM BKN110 01/M11 A2993 RMK AO2 SLP145 T00111106 400391139
0550ZOVC15000 - 3400048SCT18000 - 2900026BKN@4100
OVC@7000
KDDH 260554Z AUTO 10SM BKN041 OVC070 02/M10 A2996 RMK AO2 SLP154 T00171100 10022 21011 53004
0650ZOVC14000 - 3200048SCT13000 - 2300028FEW@4300
BKN@6500
OVC@11000
KDDH 260654Z AUTO VRB05KT 10SM FEW043 BKN065 OVC110 02/M09 A2995 RMK AO2 SLP150 T00171089
0750ZOVC16000 - 2400055SCT13000 - 2400025FEW@3400
OVC@4200
KDDH 260754Z AUTO 00000KT 10SM FEW034 OVC042 02/M09 A2994 RMK AO2 SLP145 T00221089
0850ZBKN13000 - 2800043SCT13000 - 2200028OVC@5500
KDDH 260854Z AUTO 00000KT 10SM OVC055 01/M08 A2993 RMK AO2 SLP140 T00111078 58012
0950ZBKN13000 - 3300030SCT14000 - 2500026OVC@6500
KDDH 260954Z AUTO 00000KT 10SM OVC065 01/M08 A2993 RMK AO2 SLP140 T00111078
1050ZBKN14000 - 3200039SCT17000 - 2300029FEW@4600
OVC@6500
KDDH 261054Z AUTO 00000KT 10SM FEW046 OVC065 01/M08 A2992 RMK AO2 SLP137 T00111078
1150ZBKN14000 - 3200030SCT13000 - 2300026CLR KDDH 261154Z AUTO 00000KT 10SM CLR M01/M08 A2993 RMK AO2 SLP141 T10061078 10022 21006 55001
1250ZSCT13000 - 3200023SCT13000 - 140001CLR KDDH 261254Z AUTO 00000KT 10SM CLR 02/M06 A2994 RMK AO2 SLP145 T00171061
1350ZCLR-0CLR-0CLR KDDH 261354Z AUTO 00000KT 10SM CLR 05/M06 A2994 RMK AO2 SLP144 T00501056
1450ZCLR-0CLR-0CLR KDDH 261454Z AUTO 19005KT 10SM CLR 07/M05 A2994 RMK AO2 SLP144 T00671050 51004
1550ZCLR-0CLR-0CLR KDDH 261554Z AUTO VRB03KT 10SM CLR 09/M04 A2994 RMK AO2 SLP142 T00891044
1650ZCLR-0SCT13000 - 210001CLR KDDH 261654Z AUTO VRB05KT 10SM CLR 11/M03 A2992 RMK AO2 SLP137 T01061028
1750ZCLR-0SCT14000 - 180000CLR KDDH 261754Z AUTO 29007KT 240V330 10SM CLR 12/M02 A2990 RMK AO2 SLP130 T01221017 10122 21011 58012
1850ZCLR-0SCT16000 - 190000FEW@6500
KDDH 261854Z AUTO VRB05KT 10SM FEW065 13/M02 A2990 RMK AO2 SLP127 T01281017
1950ZCLR-0SCT15000 - 280004FEW@6000
KDDH 261954Z AUTO 29010G18KT 10SM FEW060 13/M02 A2991 RMK AO2 SLP130 T01281022
2050ZSCT13000 - 350001SCT13000 - 300004CLR KDDH 262054Z AUTO 31009KT 10SM CLR 12/M02 A2993 RMK AO2 SLP138 T01221022 53008
2150ZSCT29000 - 350000SCT13000 - 270005CLR KDDH 262154Z AUTO 28006KT 10SM CLR 11/M03 A2993 RMK AO2 SLP139 T01061028